sensor_id;sensor_type;location;lat;lon;timestamp;temperature;humidity
44579;DHT22;37422;51.402;0.016;2022-07-23T00:01:35;17.80;96.90
44579;DHT22;37422;51.402;0.016;2022-07-23T00:04:03;17.80;97.00
44579;DHT22;37422;51.402;0.016;2022-07-23T00:06:31;17.80;97.00
44579;DHT22;37422;51.402;0.016;2022-07-23T00:08:58;17.80;97.10
44579;DHT22;37422;51.402;0.016;2022-07-23T00:11:26;17.80;97.00
44579;DHT22;37422;51.402;0.016;2022-07-23T00:13:55;17.80;97.00
44579;DHT22;37422;51.402;0.016;2022-07-23T00:16:28;17.80;97.00
44579;DHT22;37422;51.402;0.016;2022-07-23T00:18:56;17.80;97.00
44579;DHT22;37422;51.402;0.016;2022-07-23T00:21:24;17.80;97.00
44579;DHT22;37422;51.402;0.016;2022-07-23T00:23:55;17.80;97.20
44579;DHT22;37422;51.402;0.016;2022-07-23T00:26:26;17.80;97.00
44579;DHT22;37422;51.402;0.016;2022-07-23T00:28:53;17.80;97.00
44579;DHT22;37422;51.402;0.016;2022-07-23T00:31:21;17.90;97.00
44579;DHT22;37422;51.402;0.016;2022-07-23T00:33:49;17.90;97.00
44579;DHT22;37422;51.402;0.016;2022-07-23T00:36:17;17.90;97.00
44579;DHT22;37422;51.402;0.016;2022-07-23T00:38:45;17.80;96.90
44579;DHT22;37422;51.402;0.016;2022-07-23T00:41:16;17.80;97.00
44579;DHT22;37422;51.402;0.016;2022-07-23T00:43:44;17.80;97.00
44579;DHT22;37422;51.402;0.016;2022-07-23T00:46:12;17.80;97.00
44579;DHT22;37422;51.402;0.016;2022-07-23T00:48:45;17.80;97.00
44579;DHT22;37422;51.402;0.016;2022-07-23T00:51:16;17.80;97.00
44579;DHT22;37422;51.402;0.016;2022-07-23T00:53:45;17.80;97.00
44579;DHT22;37422;51.402;0.016;2022-07-23T00:56:16;17.80;97.00
44579;DHT22;37422;51.402;0.016;2022-07-23T00:58:44;17.80;97.00
44579;DHT22;37422;51.402;0.016;2022-07-23T01:01:12;17.80;97.10
44579;DHT22;37422;51.402;0.016;2022-07-23T01:03:40;17.80;97.10
44579;DHT22;37422;51.402;0.016;2022-07-23T01:06:08;17.80;97.10
44579;DHT22;37422;51.402;0.016;2022-07-23T01:08:35;17.70;97.10
44579;DHT22;37422;51.402;0.016;2022-07-23T01:11:03;17.70;97.10
44579;DHT22;37422;51.402;0.016;2022-07-23T01:13:31;17.70;97.10
44579;DHT22;37422;51.402;0.016;2022-07-23T01:16:02;17.70;97.10
44579;DHT22;37422;51.402;0.016;2022-07-23T01:18:30;17.60;97.10
44579;DHT22;37422;51.402;0.016;2022-07-23T01:20:59;17.60;97.20
44579;DHT22;37422;51.402;0.016;2022-07-23T01:23:27;17.60;97.20
44579;DHT22;37422;51.402;0.016;2022-07-23T01:25:58;17.50;97.20
44579;DHT22;37422;51.402;0.016;2022-07-23T01:28:28;17.50;97.30
44579;DHT22;37422;51.402;0.016;2022-07-23T01:30:58;17.40;97.40
44579;DHT22;37422;51.402;0.016;2022-07-23T01:33:30;17.40;97.40
44579;DHT22;37422;51.402;0.016;2022-07-23T01:36:01;17.40;97.50
44579;DHT22;37422;51.402;0.016;2022-07-23T01:38:29;17.40;97.50
44579;DHT22;37422;51.402;0.016;2022-07-23T01:40:57;17.40;97.70
44579;DHT22;37422;51.402;0.016;2022-07-23T01:43:30;17.40;97.70
44579;DHT22;37422;51.402;0.016;2022-07-23T01:45:58;17.40;97.70
44579;DHT22;37422;51.402;0.016;2022-07-23T01:48:33;17.40;97.70
44579;DHT22;37422;51.402;0.016;2022-07-23T01:51:25;17.40;97.70
44579;DHT22;37422;51.402;0.016;2022-07-23T01:54:03;17.50;97.80
44579;DHT22;37422;51.402;0.016;2022-07-23T01:56:31;17.50;97.80
44579;DHT22;37422;51.402;0.016;2022-07-23T01:58:59;17.50;97.80
44579;DHT22;37422;51.402;0.016;2022-07-23T02:01:28;17.50;97.70
44579;DHT22;37422;51.402;0.016;2022-07-23T02:03:56;17.50;97.70
44579;DHT22;37422;51.402;0.016;2022-07-23T02:06:27;17.60;97.70
44579;DHT22;37422;51.402;0.016;2022-07-23T02:08:55;17.60;98.00
44579;DHT22;37422;51.402;0.016;2022-07-23T02:11:23;17.60;97.70
44579;DHT22;37422;51.402;0.016;2022-07-23T02:13:50;17.70;97.70
44579;DHT22;37422;51.402;0.016;2022-07-23T02:16:18;17.70;97.70
44579;DHT22;37422;51.402;0.016;2022-07-23T02:18:46;17.70;97.70
44579;DHT22;37422;51.402;0.016;2022-07-23T02:21:14;17.70;97.60
44579;DHT22;37422;51.402;0.016;2022-07-23T02:23:44;17.70;97.70
44579;DHT22;37422;51.402;0.016;2022-07-23T02:26:13;17.70;97.80
44579;DHT22;37422;51.402;0.016;2022-07-23T02:28:50;17.70;97.80
44579;DHT22;37422;51.402;0.016;2022-07-23T02:31:22;17.70;97.80
44579;DHT22;37422;51.402;0.016;2022-07-23T02:33:50;17.60;97.80
44579;DHT22;37422;51.402;0.016;2022-07-23T02:36:22;17.70;97.70
44579;DHT22;37422;51.402;0.016;2022-07-23T02:38:53;17.60;97.70
44579;DHT22;37422;51.402;0.016;2022-07-23T02:41:21;17.60;97.70
44579;DHT22;37422;51.402;0.016;2022-07-23T02:43:48;17.60;97.70
44579;DHT22;37422;51.402;0.016;2022-07-23T02:46:21;17.50;97.70
44579;DHT22;37422;51.402;0.016;2022-07-23T02:48:50;17.50;97.80
44579;DHT22;37422;51.402;0.016;2022-07-23T02:51:19;17.50;97.90
44579;DHT22;37422;51.402;0.016;2022-07-23T02:53:53;17.50;97.90
44579;DHT22;37422;51.402;0.016;2022-07-23T02:56:21;17.50;97.90
44579;DHT22;37422;51.402;0.016;2022-07-23T02:58:49;17.50;97.90
44579;DHT22;37422;51.402;0.016;2022-07-23T03:01:16;17.50;98.10
44579;DHT22;37422;51.402;0.016;2022-07-23T03:03:47;17.50;98.10
44579;DHT22;37422;51.402;0.016;2022-07-23T03:06:16;17.50;98.10
44579;DHT22;37422;51.402;0.016;2022-07-23T03:08:45;17.50;98.30
44579;DHT22;37422;51.402;0.016;2022-07-23T03:11:15;17.50;98.10
44579;DHT22;37422;51.402;0.016;2022-07-23T03:13:44;17.50;98.10
44579;DHT22;37422;51.402;0.016;2022-07-23T03:16:15;17.50;98.10
44579;DHT22;37422;51.402;0.016;2022-07-23T03:18:43;17.50;98.10
44579;DHT22;37422;51.402;0.016;2022-07-23T03:21:13;17.50;98.10
44579;DHT22;37422;51.402;0.016;2022-07-23T03:23:42;17.40;98.10
44579;DHT22;37422;51.402;0.016;2022-07-23T03:26:09;17.40;98.10
44579;DHT22;37422;51.402;0.016;2022-07-23T03:28:41;17.40;98.20
44579;DHT22;37422;51.402;0.016;2022-07-23T03:31:09;17.30;98.20
44579;DHT22;37422;51.402;0.016;2022-07-23T03:33:38;17.30;98.30
44579;DHT22;37422;51.402;0.016;2022-07-23T03:36:07;17.20;98.30
44579;DHT22;37422;51.402;0.016;2022-07-23T03:38:40;17.20;98.40
44579;DHT22;37422;51.402;0.016;2022-07-23T03:41:09;17.20;98.40
44579;DHT22;37422;51.402;0.016;2022-07-23T03:43:37;17.10;98.50
44579;DHT22;37422;51.402;0.016;2022-07-23T03:46:05;17.10;98.60
44579;DHT22;37422;51.402;0.016;2022-07-23T03:48:34;17.10;98.70
44579;DHT22;37422;51.402;0.016;2022-07-23T03:51:02;17.10;98.70
44579;DHT22;37422;51.402;0.016;2022-07-23T03:53:33;17.10;98.80
44579;DHT22;37422;51.402;0.016;2022-07-23T03:56:01;17.10;98.80
44579;DHT22;37422;51.402;0.016;2022-07-23T03:58:31;17.20;98.80
44579;DHT22;37422;51.402;0.016;2022-07-23T04:01:05;17.20;98.80
44579;DHT22;37422;51.402;0.016;2022-07-23T04:03:33;17.10;98.80
44579;DHT22;37422;51.402;0.016;2022-07-23T04:06:01;17.10;98.80
44579;DHT22;37422;51.402;0.016;2022-07-23T04:08:30;17.10;98.80
44579;DHT22;37422;51.402;0.016;2022-07-23T04:11:01;17.10;98.80
44579;DHT22;37422;51.402;0.016;2022-07-23T04:13:33;17.10;98.80
44579;DHT22;37422;51.402;0.016;2022-07-23T04:16:04;17.10;98.80
44579;DHT22;37422;51.402;0.016;2022-07-23T04:18:32;17.10;98.90
44579;DHT22;37422;51.402;0.016;2022-07-23T04:21:09;17.10;99.00
44579;DHT22;37422;51.402;0.016;2022-07-23T04:23:39;17.10;99.00
44579;DHT22;37422;51.402;0.016;2022-07-23T04:26:08;17.20;99.10
44579;DHT22;37422;51.402;0.016;2022-07-23T04:28:42;17.20;99.10
44579;DHT22;37422;51.402;0.016;2022-07-23T04:31:14;17.20;99.00
44579;DHT22;37422;51.402;0.016;2022-07-23T04:33:44;17.20;99.10
44579;DHT22;37422;51.402;0.016;2022-07-23T04:36:12;17.20;99.10
44579;DHT22;37422;51.402;0.016;2022-07-23T04:38:44;17.20;99.10
44579;DHT22;37422;51.402;0.016;2022-07-23T04:41:22;17.30;99.10
44579;DHT22;37422;51.402;0.016;2022-07-23T04:43:50;17.30;99.10
44579;DHT22;37422;51.402;0.016;2022-07-23T04:46:18;17.30;99.10
44579;DHT22;37422;51.402;0.016;2022-07-23T04:48:49;17.30;99.10
44579;DHT22;37422;51.402;0.016;2022-07-23T04:51:21;17.30;99.10
44579;DHT22;37422;51.402;0.016;2022-07-23T04:53:49;17.20;99.20
44579;DHT22;37422;51.402;0.016;2022-07-23T04:56:17;17.20;99.30
44579;DHT22;37422;51.402;0.016;2022-07-23T04:58:45;17.10;99.30
44579;DHT22;37422;51.402;0.016;2022-07-23T05:01:16;17.10;99.40
44579;DHT22;37422;51.402;0.016;2022-07-23T05:03:47;17.10;99.40
44579;DHT22;37422;51.402;0.016;2022-07-23T05:06:16;17.00;99.40
44579;DHT22;37422;51.402;0.016;2022-07-23T05:08:45;17.10;99.60
44579;DHT22;37422;51.402;0.016;2022-07-23T05:11:13;17.10;99.60
44579;DHT22;37422;51.402;0.016;2022-07-23T05:13:43;17.00;99.70
44579;DHT22;37422;51.402;0.016;2022-07-23T05:16:14;17.00;99.70
44579;DHT22;37422;51.402;0.016;2022-07-23T05:18:43;17.00;99.80
44579;DHT22;37422;51.402;0.016;2022-07-23T05:21:13;17.10;99.80
44579;DHT22;37422;51.402;0.016;2022-07-23T05:23:46;17.10;99.80
44579;DHT22;37422;51.402;0.016;2022-07-23T05:26:14;17.10;99.80
44579;DHT22;37422;51.402;0.016;2022-07-23T05:28:44;17.10;99.80
44579;DHT22;37422;51.402;0.016;2022-07-23T05:31:22;17.20;99.90
44579;DHT22;37422;51.402;0.016;2022-07-23T05:33:51;17.30;99.80
44579;DHT22;37422;51.402;0.016;2022-07-23T05:36:21;17.40;99.80
44579;DHT22;37422;51.402;0.016;2022-07-23T05:38:54;17.50;99.90
44579;DHT22;37422;51.402;0.016;2022-07-23T05:41:22;17.70;99.80
44579;DHT22;37422;51.402;0.016;2022-07-23T05:43:51;17.80;99.70
44579;DHT22;37422;51.402;0.016;2022-07-23T05:46:22;18.00;99.60
44579;DHT22;37422;51.402;0.016;2022-07-23T05:48:55;18.20;99.40
44579;DHT22;37422;51.402;0.016;2022-07-23T05:51:45;18.30;99.20
44579;DHT22;37422;51.402;0.016;2022-07-23T05:54:25;18.40;98.90
44579;DHT22;37422;51.402;0.016;2022-07-23T05:56:53;18.60;99.00
44579;DHT22;37422;51.402;0.016;2022-07-23T05:59:26;18.70;98.80
44579;DHT22;37422;51.402;0.016;2022-07-23T06:01:56;18.80;98.60
44579;DHT22;37422;51.402;0.016;2022-07-23T06:04:24;18.90;98.40
44579;DHT22;37422;51.402;0.016;2022-07-23T06:07:11;19.10;98.20
44579;DHT22;37422;51.402;0.016;2022-07-23T06:09:43;19.20;98.00
44579;DHT22;37422;51.402;0.016;2022-07-23T06:12:12;19.30;97.90
44579;DHT22;37422;51.402;0.016;2022-07-23T06:14:46;19.50;97.80
44579;DHT22;37422;51.402;0.016;2022-07-23T06:17:16;19.70;97.60
44579;DHT22;37422;51.402;0.016;2022-07-23T06:19:44;19.90;97.30
44579;DHT22;37422;51.402;0.016;2022-07-23T06:22:15;20.10;96.90
44579;DHT22;37422;51.402;0.016;2022-07-23T06:24:44;20.20;96.40
44579;DHT22;37422;51.402;0.016;2022-07-23T06:27:15;20.40;96.70
44579;DHT22;37422;51.402;0.016;2022-07-23T06:29:43;20.60;96.70
44579;DHT22;37422;51.402;0.016;2022-07-23T06:32:11;20.80;95.80
44579;DHT22;37422;51.402;0.016;2022-07-23T06:34:41;20.90;95.90
44579;DHT22;37422;51.402;0.016;2022-07-23T06:37:15;20.90;95.00
44579;DHT22;37422;51.402;0.016;2022-07-23T06:39:47;21.10;95.80
44579;DHT22;37422;51.402;0.016;2022-07-23T06:42:16;21.20;95.30
44579;DHT22;37422;51.402;0.016;2022-07-23T06:44:45;21.30;95.70
44579;DHT22;37422;51.402;0.016;2022-07-23T06:47:16;21.40;95.50
44579;DHT22;37422;51.402;0.016;2022-07-23T06:49:50;21.60;95.50
44579;DHT22;37422;51.402;0.016;2022-07-23T06:52:18;21.80;95.50
44579;DHT22;37422;51.402;0.016;2022-07-23T06:54:46;22.10;95.40
44579;DHT22;37422;51.402;0.016;2022-07-23T06:57:17;22.40;95.20
44579;DHT22;37422;51.402;0.016;2022-07-23T06:59:45;22.60;94.70
44579;DHT22;37422;51.402;0.016;2022-07-23T07:02:18;22.70;93.90
44579;DHT22;37422;51.402;0.016;2022-07-23T07:04:48;22.90;93.80
44579;DHT22;37422;51.402;0.016;2022-07-23T07:07:16;23.00;93.80
44579;DHT22;37422;51.402;0.016;2022-07-23T07:09:44;23.20;93.50
44579;DHT22;37422;51.402;0.016;2022-07-23T07:12:17;23.40;93.20
44579;DHT22;37422;51.402;0.016;2022-07-23T07:14:44;23.60;92.80
44579;DHT22;37422;51.402;0.016;2022-07-23T07:17:12;23.70;92.70
44579;DHT22;37422;51.402;0.016;2022-07-23T07:19:42;23.80;92.50
44579;DHT22;37422;51.402;0.016;2022-07-23T07:22:10;23.80;92.30
44579;DHT22;37422;51.402;0.016;2022-07-23T07:24:39;23.90;92.20
44579;DHT22;37422;51.402;0.016;2022-07-23T07:27:16;24.20;92.10
44579;DHT22;37422;51.402;0.016;2022-07-23T07:29:53;24.30;91.80
44579;DHT22;37422;51.402;0.016;2022-07-23T07:32:28;24.50;89.70
44579;DHT22;37422;51.402;0.016;2022-07-23T07:35:18;24.60;91.00
44579;DHT22;37422;51.402;0.016;2022-07-23T07:37:46;24.80;90.90
44579;DHT22;37422;51.402;0.016;2022-07-23T07:40:14;24.90;90.50
44579;DHT22;37422;51.402;0.016;2022-07-23T07:42:47;25.10;90.30
44579;DHT22;37422;51.402;0.016;2022-07-23T07:45:20;25.30;90.10
44579;DHT22;37422;51.402;0.016;2022-07-23T07:47:49;25.50;89.80
44579;DHT22;37422;51.402;0.016;2022-07-23T07:50:16;25.80;89.60
44579;DHT22;37422;51.402;0.016;2022-07-23T07:52:44;26.10;88.90
44579;DHT22;37422;51.402;0.016;2022-07-23T07:55:12;26.30;87.80
44579;DHT22;37422;51.402;0.016;2022-07-23T07:57:43;26.50;86.10
44579;DHT22;37422;51.402;0.016;2022-07-23T08:00:16;26.70;85.30
44579;DHT22;37422;51.402;0.016;2022-07-23T08:02:46;26.70;77.70
44579;DHT22;37422;51.402;0.016;2022-07-23T08:05:18;26.70;82.50
44579;DHT22;37422;51.402;0.016;2022-07-23T08:07:56;26.70;81.10
44579;DHT22;37422;51.402;0.016;2022-07-23T08:10:26;26.70;80.30
44579;DHT22;37422;51.402;0.016;2022-07-23T08:12:55;26.60;79.50
44579;DHT22;37422;51.402;0.016;2022-07-23T08:15:27;26.60;79.50
44579;DHT22;37422;51.402;0.016;2022-07-23T08:17:56;26.80;79.40
44579;DHT22;37422;51.402;0.016;2022-07-23T08:20:24;27.10;76.70
44579;DHT22;37422;51.402;0.016;2022-07-23T08:22:58;27.30;79.60
44579;DHT22;37422;51.402;0.016;2022-07-23T08:25:38;27.50;78.00
44579;DHT22;37422;51.402;0.016;2022-07-23T08:28:10;27.70;77.20
44579;DHT22;37422;51.402;0.016;2022-07-23T08:30:41;27.80;76.70
44579;DHT22;37422;51.402;0.016;2022-07-23T08:33:12;28.00;75.90
44579;DHT22;37422;51.402;0.016;2022-07-23T08:36:01;28.20;75.20
44579;DHT22;37422;51.402;0.016;2022-07-23T08:41:19;28.70;73.90
44579;DHT22;37422;51.402;0.016;2022-07-23T08:43:47;29.00;73.70
44579;DHT22;37422;51.402;0.016;2022-07-23T08:46:17;29.00;72.70
44579;DHT22;37422;51.402;0.016;2022-07-23T08:48:48;29.10;71.30
44579;DHT22;37422;51.402;0.016;2022-07-23T08:51:16;29.00;70.40
44579;DHT22;37422;51.402;0.016;2022-07-23T08:53:49;29.10;70.00
44579;DHT22;37422;51.402;0.016;2022-07-23T08:56:17;29.20;69.90
44579;DHT22;37422;51.402;0.016;2022-07-23T08:58:45;29.30;68.20
44579;DHT22;37422;51.402;0.016;2022-07-23T09:01:14;29.20;67.50
44579;DHT22;37422;51.402;0.016;2022-07-23T09:03:42;29.00;67.00
44579;DHT22;37422;51.402;0.016;2022-07-23T09:06:12;28.80;66.60
44579;DHT22;37422;51.402;0.016;2022-07-23T09:08:42;28.80;66.90
44579;DHT22;37422;51.402;0.016;2022-07-23T09:11:12;29.00;66.80
44579;DHT22;37422;51.402;0.016;2022-07-23T09:13:52;29.10;65.70
44579;DHT22;37422;51.402;0.016;2022-07-23T09:16:29;29.30;64.10
44579;DHT22;37422;51.402;0.016;2022-07-23T09:19:03;29.50;64.70
44579;DHT22;37422;51.402;0.016;2022-07-23T09:21:36;29.80;62.90
44579;DHT22;37422;51.402;0.016;2022-07-23T09:24:06;29.80;63.60
44579;DHT22;37422;51.402;0.016;2022-07-23T09:26:45;29.80;63.60
44579;DHT22;37422;51.402;0.016;2022-07-23T09:29:25;29.90;61.40
44579;DHT22;37422;51.402;0.016;2022-07-23T09:31:58;30.00;59.70
44579;DHT22;37422;51.402;0.016;2022-07-23T09:34:28;29.70;60.30
44579;DHT22;37422;51.402;0.016;2022-07-23T09:37:09;29.50;61.70
44579;DHT22;37422;51.402;0.016;2022-07-23T09:39:41;29.50;57.90
44579;DHT22;37422;51.402;0.016;2022-07-23T09:42:20;29.20;60.10
44579;DHT22;37422;51.402;0.016;2022-07-23T09:44:51;29.30;58.80
44579;DHT22;37422;51.402;0.016;2022-07-23T09:47:19;29.40;59.10
44579;DHT22;37422;51.402;0.016;2022-07-23T09:50:09;29.60;57.80
44579;DHT22;37422;51.402;0.016;2022-07-23T09:52:48;29.90;57.60
44579;DHT22;37422;51.402;0.016;2022-07-23T09:55:17;30.00;56.80
44579;DHT22;37422;51.402;0.016;2022-07-23T09:57:46;29.70;57.20
44579;DHT22;37422;51.402;0.016;2022-07-23T10:00:32;29.40;57.40
44579;DHT22;37422;51.402;0.016;2022-07-23T10:03:01;29.50;57.50
44579;DHT22;37422;51.402;0.016;2022-07-23T10:05:31;29.50;57.20
44579;DHT22;37422;51.402;0.016;2022-07-23T10:08:02;29.70;57.00
44579;DHT22;37422;51.402;0.016;2022-07-23T10:10:50;30.00;57.50
44579;DHT22;37422;51.402;0.016;2022-07-23T10:13:38;30.40;57.30
44579;DHT22;37422;51.402;0.016;2022-07-23T10:16:25;30.80;57.50
44579;DHT22;37422;51.402;0.016;2022-07-23T10:18:54;31.10;56.40
44579;DHT22;37422;51.402;0.016;2022-07-23T10:21:36;31.30;55.60
44579;DHT22;37422;51.402;0.016;2022-07-23T10:30:04;31.90;55.20
44579;DHT22;37422;51.402;0.016;2022-07-23T10:32:45;32.30;53.10
44579;DHT22;37422;51.402;0.016;2022-07-23T10:35:29;32.60;53.50
44579;DHT22;37422;51.402;0.016;2022-07-23T10:41:03;33.00;50.50
44579;DHT22;37422;51.402;0.016;2022-07-23T10:43:31;33.00;50.50
44579;DHT22;37422;51.402;0.016;2022-07-23T10:46:22;32.60;49.40
44579;DHT22;37422;51.402;0.016;2022-07-23T10:49:23;32.40;50.00
44579;DHT22;37422;51.402;0.016;2022-07-23T10:54:55;32.20;48.40
44579;DHT22;37422;51.402;0.016;2022-07-23T10:57:27;32.20;49.20
44579;DHT22;37422;51.402;0.016;2022-07-23T11:02:30;31.70;48.10
44579;DHT22;37422;51.402;0.016;2022-07-23T11:05:05;31.40;49.00
44579;DHT22;37422;51.402;0.016;2022-07-23T11:07:35;31.60;49.10
44579;DHT22;37422;51.402;0.016;2022-07-23T11:10:04;31.70;49.60
44579;DHT22;37422;51.402;0.016;2022-07-23T11:12:32;31.80;49.70
44579;DHT22;37422;51.402;0.016;2022-07-23T11:15:08;32.00;49.10
44579;DHT22;37422;51.402;0.016;2022-07-23T11:20:18;32.50;48.50
44579;DHT22;37422;51.402;0.016;2022-07-23T11:22:49;32.70;48.20
44579;DHT22;37422;51.402;0.016;2022-07-23T11:28:16;33.10;48.70
44579;DHT22;37422;51.402;0.016;2022-07-23T11:30:48;33.50;47.00
44579;DHT22;37422;51.402;0.016;2022-07-23T11:33:17;33.70;48.70
44579;DHT22;37422;51.402;0.016;2022-07-23T11:36:05;34.00;48.20
44579;DHT22;37422;51.402;0.016;2022-07-23T11:38:33;34.10;44.80
44579;DHT22;37422;51.402;0.016;2022-07-23T11:41:03;33.80;46.30
44579;DHT22;37422;51.402;0.016;2022-07-23T11:43:31;33.90;47.60
44579;DHT22;37422;51.402;0.016;2022-07-23T11:46:00;34.10;48.10
44579;DHT22;37422;51.402;0.016;2022-07-23T11:48:30;34.40;48.10
44579;DHT22;37422;51.402;0.016;2022-07-23T11:51:02;34.70;47.60
44579;DHT22;37422;51.402;0.016;2022-07-23T11:53:33;34.70;46.10
44579;DHT22;37422;51.402;0.016;2022-07-23T11:56:09;34.60;45.00
44579;DHT22;37422;51.402;0.016;2022-07-23T11:58:54;34.50;45.60
44579;DHT22;37422;51.402;0.016;2022-07-23T12:01:27;34.50;45.20
44579;DHT22;37422;51.402;0.016;2022-07-23T12:03:58;34.40;45.50
44579;DHT22;37422;51.402;0.016;2022-07-23T12:06:37;34.20;45.40
44579;DHT22;37422;51.402;0.016;2022-07-23T12:09:13;34.30;45.90
44579;DHT22;37422;51.402;0.016;2022-07-23T12:11:57;34.50;45.80
44579;DHT22;37422;51.402;0.016;2022-07-23T12:14:36;34.80;46.00
44579;DHT22;37422;51.402;0.016;2022-07-23T12:17:21;35.10;45.70
44579;DHT22;37422;51.402;0.016;2022-07-23T12:19:56;35.10;44.80
44579;DHT22;37422;51.402;0.016;2022-07-23T12:22:26;34.80;45.00
44579;DHT22;37422;51.402;0.016;2022-07-23T12:25:06;34.50;45.10
44579;DHT22;37422;51.402;0.016;2022-07-23T12:27:35;34.50;45.40
44579;DHT22;37422;51.402;0.016;2022-07-23T12:30:34;34.50;44.70
44579;DHT22;37422;51.402;0.016;2022-07-23T12:33:05;34.70;44.80
44579;DHT22;37422;51.402;0.016;2022-07-23T12:38:23;35.00;44.60
44579;DHT22;37422;51.402;0.016;2022-07-23T12:41:02;34.80;43.80
44579;DHT22;37422;51.402;0.016;2022-07-23T12:43:40;34.80;42.70
44579;DHT22;37422;51.402;0.016;2022-07-23T12:46:19;34.50;43.50
44579;DHT22;37422;51.402;0.016;2022-07-23T12:51:21;34.00;44.80
44579;DHT22;37422;51.402;0.016;2022-07-23T12:54:10;34.00;44.40
44579;DHT22;37422;51.402;0.016;2022-07-23T12:56:40;34.10;43.30
44579;DHT22;37422;51.402;0.016;2022-07-23T12:59:16;34.30;44.40
44579;DHT22;37422;51.402;0.016;2022-07-23T13:01:53;34.50;44.00
44579;DHT22;37422;51.402;0.016;2022-07-23T13:04:24;34.80;44.10
44579;DHT22;37422;51.402;0.016;2022-07-23T13:06:54;35.00;43.80
44579;DHT22;37422;51.402;0.016;2022-07-23T13:09:28;35.40;44.40
44579;DHT22;37422;51.402;0.016;2022-07-23T13:12:00;35.80;44.20
44579;DHT22;37422;51.402;0.016;2022-07-23T13:14:28;36.00;43.40
44579;DHT22;37422;51.402;0.016;2022-07-23T13:16:56;35.90;43.50
44579;DHT22;37422;51.402;0.016;2022-07-23T13:19:25;35.70;42.70
44579;DHT22;37422;51.402;0.016;2022-07-23T13:21:54;35.60;43.50
44579;DHT22;37422;51.402;0.016;2022-07-23T13:24:22;35.40;43.00
44579;DHT22;37422;51.402;0.016;2022-07-23T13:26:50;35.50;43.20
44579;DHT22;37422;51.402;0.016;2022-07-23T13:29:20;35.50;42.90
44579;DHT22;37422;51.402;0.016;2022-07-23T13:31:50;35.60;42.80
44579;DHT22;37422;51.402;0.016;2022-07-23T13:34:17;35.30;42.30
44579;DHT22;37422;51.402;0.016;2022-07-23T13:36:48;35.30;42.40
44579;DHT22;37422;51.402;0.016;2022-07-23T13:39:15;35.30;42.20
44579;DHT22;37422;51.402;0.016;2022-07-23T13:41:43;35.50;43.00
44579;DHT22;37422;51.402;0.016;2022-07-23T13:44:20;35.80;43.40
44579;DHT22;37422;51.402;0.016;2022-07-23T13:46:49;35.90;42.90
44579;DHT22;37422;51.402;0.016;2022-07-23T13:49:17;36.20;42.90
44579;DHT22;37422;51.402;0.016;2022-07-23T13:51:46;36.40;42.80
44579;DHT22;37422;51.402;0.016;2022-07-23T13:54:13;36.50;42.40
44579;DHT22;37422;51.402;0.016;2022-07-23T13:56:42;36.10;42.20
44579;DHT22;37422;51.402;0.016;2022-07-23T13:59:09;35.90;42.20
44579;DHT22;37422;51.402;0.016;2022-07-23T14:01:38;35.70;42.30
44579;DHT22;37422;51.402;0.016;2022-07-23T14:04:26;35.50;42.80
44579;DHT22;37422;51.402;0.016;2022-07-23T14:06:54;35.50;43.50
44579;DHT22;37422;51.402;0.016;2022-07-23T14:09:22;35.60;43.40
44579;DHT22;37422;51.402;0.016;2022-07-23T14:11:52;35.60;42.90
44579;DHT22;37422;51.402;0.016;2022-07-23T14:14:21;35.30;42.80
44579;DHT22;37422;51.402;0.016;2022-07-23T14:16:49;34.60;42.90
44579;DHT22;37422;51.402;0.016;2022-07-23T14:19:17;34.40;43.30
44579;DHT22;37422;51.402;0.016;2022-07-23T14:21:45;34.00;43.50
44579;DHT22;37422;51.402;0.016;2022-07-23T14:24:15;33.90;44.10
44579;DHT22;37422;51.402;0.016;2022-07-23T14:26:45;33.90;44.30
44579;DHT22;37422;51.402;0.016;2022-07-23T14:29:13;34.00;44.70
44579;DHT22;37422;51.402;0.016;2022-07-23T14:31:41;33.90;44.80
44579;DHT22;37422;51.402;0.016;2022-07-23T14:34:10;33.60;44.60
44579;DHT22;37422;51.402;0.016;2022-07-23T14:36:39;33.20;44.80
44579;DHT22;37422;51.402;0.016;2022-07-23T14:39:08;32.90;45.00
44579;DHT22;37422;51.402;0.016;2022-07-23T14:41:38;32.60;45.30
44579;DHT22;37422;51.402;0.016;2022-07-23T14:44:06;32.20;45.60
44579;DHT22;37422;51.402;0.016;2022-07-23T14:46:36;32.00;46.10
44579;DHT22;37422;51.402;0.016;2022-07-23T14:49:04;31.90;46.60
44579;DHT22;37422;51.402;0.016;2022-07-23T14:51:33;31.50;46.70
44579;DHT22;37422;51.402;0.016;2022-07-23T14:54:01;31.10;47.00
44579;DHT22;37422;51.402;0.016;2022-07-23T14:56:28;30.70;47.40
44579;DHT22;37422;51.402;0.016;2022-07-23T14:58:56;30.50;48.10
44579;DHT22;37422;51.402;0.016;2022-07-23T15:01:25;30.40;47.70
44579;DHT22;37422;51.402;0.016;2022-07-23T15:03:55;30.10;47.90
44579;DHT22;37422;51.402;0.016;2022-07-23T15:06:29;29.50;49.50
44579;DHT22;37422;51.402;0.016;2022-07-23T15:08:58;29.40;48.80
44579;DHT22;37422;51.402;0.016;2022-07-23T15:11:31;29.10;49.40
44579;DHT22;37422;51.402;0.016;2022-07-23T15:14:01;28.90;49.70
44579;DHT22;37422;51.402;0.016;2022-07-23T15:16:29;28.80;49.60
44579;DHT22;37422;51.402;0.016;2022-07-23T15:18:57;28.50;50.30
44579;DHT22;37422;51.402;0.016;2022-07-23T15:21:24;28.40;50.20
44579;DHT22;37422;51.402;0.016;2022-07-23T15:23:53;28.30;50.60
44579;DHT22;37422;51.402;0.016;2022-07-23T15:26:22;28.20;50.90
44579;DHT22;37422;51.402;0.016;2022-07-23T15:28:50;28.20;51.00
44579;DHT22;37422;51.402;0.016;2022-07-23T15:31:18;28.20;51.60
44579;DHT22;37422;51.402;0.016;2022-07-23T15:33:46;28.10;51.70
44579;DHT22;37422;51.402;0.016;2022-07-23T15:36:18;28.40;52.00
44579;DHT22;37422;51.402;0.016;2022-07-23T15:38:47;28.60;51.90
44579;DHT22;37422;51.402;0.016;2022-07-23T15:41:15;28.80;52.10
44579;DHT22;37422;51.402;0.016;2022-07-23T15:43:43;29.00;51.90
44579;DHT22;37422;51.402;0.016;2022-07-23T15:46:13;29.10;52.30
44579;DHT22;37422;51.402;0.016;2022-07-23T15:48:41;29.20;51.80
44579;DHT22;37422;51.402;0.016;2022-07-23T15:51:09;29.10;51.70
44579;DHT22;37422;51.402;0.016;2022-07-23T15:53:37;28.90;51.70
44579;DHT22;37422;51.402;0.016;2022-07-23T15:56:06;28.50;52.00
44579;DHT22;37422;51.402;0.016;2022-07-23T15:58:42;28.20;52.60
44579;DHT22;37422;51.402;0.016;2022-07-23T16:01:11;28.10;53.00
44579;DHT22;37422;51.402;0.016;2022-07-23T16:03:40;28.40;53.40
44579;DHT22;37422;51.402;0.016;2022-07-23T16:06:10;28.40;53.10
44579;DHT22;37422;51.402;0.016;2022-07-23T16:08:45;28.50;53.70
44579;DHT22;37422;51.402;0.016;2022-07-23T16:11:16;28.60;53.50
44579;DHT22;37422;51.402;0.016;2022-07-23T16:13:46;28.60;53.60
44579;DHT22;37422;51.402;0.016;2022-07-23T16:16:13;28.80;53.50
44579;DHT22;37422;51.402;0.016;2022-07-23T16:18:43;28.80;53.30
44579;DHT22;37422;51.402;0.016;2022-07-23T16:21:14;28.70;53.40
44579;DHT22;37422;51.402;0.016;2022-07-23T16:23:43;28.50;53.70